sensor_id;sensor_type;location;lat;lon;timestamp;temperature;humidity
6252;DHT22;3159;52.414;9.784;2023-04-03T00:00:31;4.00;99.90
6252;DHT22;3159;52.414;9.784;2023-04-03T00:02:58;4.00;99.90
6252;DHT22;3159;52.414;9.784;2023-04-03T00:05:24;3.90;99.90
6252;DHT22;3159;52.414;9.784;2023-04-03T00:07:53;4.00;99.90
6252;DHT22;3159;52.414;9.784;2023-04-03T00:10:19;4.00;99.90
6252;DHT22;3159;52.414;9.784;2023-04-03T00:12:46;4.10;99.90
6252;DHT22;3159;52.414;9.784;2023-04-03T00:15:13;4.10;99.90
6252;DHT22;3159;52.414;9.784;2023-04-03T00:17:40;4.00;99.90
6252;DHT22;3159;52.414;9.784;2023-04-03T00:20:08;4.10;99.90
6252;DHT22;3159;52.414;9.784;2023-04-03T00:22:35;4.10;99.90
6252;DHT22;3159;52.414;9.784;2023-04-03T00:25:03;4.10;99.90
6252;DHT22;3159;52.414;9.784;2023-04-03T00:27:30;4.10;99.90
6252;DHT22;3159;52.414;9.784;2023-04-03T00:29:57;4.00;99.90
6252;DHT22;3159;52.414;9.784;2023-04-03T00:32:24;4.10;99.90
6252;DHT22;3159;52.414;9.784;2023-04-03T00:34:51;4.00;99.90
6252;DHT22;3159;52.414;9.784;2023-04-03T00:37:17;4.10;99.90
6252;DHT22;3159;52.414;9.784;2023-04-03T00:39:44;4.00;99.90
6252;DHT22;3159;52.414;9.784;2023-04-03T00:42:13;4.00;99.90
6252;DHT22;3159;52.414;9.784;2023-04-03T00:47:43;3.90;99.90
6252;DHT22;3159;52.414;9.784;2023-04-03T00:50:11;3.80;99.90
6252;DHT22;3159;52.414;9.784;2023-04-03T00:52:38;3.90;99.90
6252;DHT22;3159;52.414;9.784;2023-04-03T00:55:08;3.80;99.90
6252;DHT22;3159;52.414;9.784;2023-04-03T00:57:37;3.80;99.90
6252;DHT22;3159;52.414;9.784;2023-04-03T01:00:07;3.70;99.90
6252;DHT22;3159;52.414;9.784;2023-04-03T01:02:35;3.70;99.90
6252;DHT22;3159;52.414;9.784;2023-04-03T01:05:03;3.70;99.90
6252;DHT22;3159;52.414;9.784;2023-04-03T01:07:31;3.60;99.90
6252;DHT22;3159;52.414;9.784;2023-04-03T01:10:02;3.70;99.90
6252;DHT22;3159;52.414;9.784;2023-04-03T01:12:31;3.60;99.90
6252;DHT22;3159;52.414;9.784;2023-04-03T01:15:02;3.60;99.90
6252;DHT22;3159;52.414;9.784;2023-04-03T01:17:31;3.60;99.90
6252;DHT22;3159;52.414;9.784;2023-04-03T01:20:39;3.60;99.90
6252;DHT22;3159;52.414;9.784;2023-04-03T01:23:26;3.60;99.90
6252;DHT22;3159;52.414;9.784;2023-04-03T01:25:55;3.60;99.90
6252;DHT22;3159;52.414;9.784;2023-04-03T01:28:24;3.50;99.90
6252;DHT22;3159;52.414;9.784;2023-04-03T01:31:00;3.50;99.90
6252;DHT22;3159;52.414;9.784;2023-04-03T01:33:30;3.40;99.90
6252;DHT22;3159;52.414;9.784;2023-04-03T01:35:57;3.30;99.90
6252;DHT22;3159;52.414;9.784;2023-04-03T01:38:24;3.30;99.90
6252;DHT22;3159;52.414;9.784;2023-04-03T01:40:51;3.30;99.90
6252;DHT22;3159;52.414;9.784;2023-04-03T01:43:17;3.30;99.90
6252;DHT22;3159;52.414;9.784;2023-04-03T01:45:44;3.30;99.90
6252;DHT22;3159;52.414;9.784;2023-04-03T01:48:12;3.30;99.90
6252;DHT22;3159;52.414;9.784;2023-04-03T01:50:40;3.30;99.90
6252;DHT22;3159;52.414;9.784;2023-04-03T01:53:08;3.20;99.90
6252;DHT22;3159;52.414;9.784;2023-04-03T01:55:35;3.10;99.90
6252;DHT22;3159;52.414;9.784;2023-04-03T01:58:02;3.10;99.90
6252;DHT22;3159;52.414;9.784;2023-04-03T02:00:28;3.10;99.90
6252;DHT22;3159;52.414;9.784;2023-04-03T02:02:56;3.20;99.90
6252;DHT22;3159;52.414;9.784;2023-04-03T02:05:23;3.10;99.90
6252;DHT22;3159;52.414;9.784;2023-04-03T02:07:51;3.00;99.90
6252;DHT22;3159;52.414;9.784;2023-04-03T02:10:18;3.00;99.90
6252;DHT22;3159;52.414;9.784;2023-04-03T02:12:45;2.90;99.90
6252;DHT22;3159;52.414;9.784;2023-04-03T02:15:12;3.00;99.90
6252;DHT22;3159;52.414;9.784;2023-04-03T02:17:38;2.90;99.90
6252;DHT22;3159;52.414;9.784;2023-04-03T02:20:07;2.90;99.90
6252;DHT22;3159;52.414;9.784;2023-04-03T02:22:33;2.80;99.90
6252;DHT22;3159;52.414;9.784;2023-04-03T02:25:02;2.80;99.90
6252;DHT22;3159;52.414;9.784;2023-04-03T02:27:29;2.80;99.90
6252;DHT22;3159;52.414;9.784;2023-04-03T02:29:57;2.80;99.90
6252;DHT22;3159;52.414;9.784;2023-04-03T02:32:24;2.80;99.90
6252;DHT22;3159;52.414;9.784;2023-04-03T02:34:50;2.70;99.90
6252;DHT22;3159;52.414;9.784;2023-04-03T02:37:17;2.70;99.90
6252;DHT22;3159;52.414;9.784;2023-04-03T02:39:44;2.70;99.90
6252;DHT22;3159;52.414;9.784;2023-04-03T02:42:12;2.60;99.90
6252;DHT22;3159;52.414;9.784;2023-04-03T02:44:39;2.60;99.90
6252;DHT22;3159;52.414;9.784;2023-04-03T02:47:06;2.60;99.90
6252;DHT22;3159;52.414;9.784;2023-04-03T02:49:32;2.60;99.90
6252;DHT22;3159;52.414;9.784;2023-04-03T02:51:59;2.60;99.90
6252;DHT22;3159;52.414;9.784;2023-04-03T02:54:26;2.50;99.90
6252;DHT22;3159;52.414;9.784;2023-04-03T02:56:56;2.50;99.90
6252;DHT22;3159;52.414;9.784;2023-04-03T02:59:24;2.50;99.90
6252;DHT22;3159;52.414;9.784;2023-04-03T03:01:51;2.50;99.90
6252;DHT22;3159;52.414;9.784;2023-04-03T03:04:18;2.60;99.90
6252;DHT22;3159;52.414;9.784;2023-04-03T03:06:44;2.60;99.90
6252;DHT22;3159;52.414;9.784;2023-04-03T03:09:12;2.50;99.90
6252;DHT22;3159;52.414;9.784;2023-04-03T03:11:39;2.50;99.90
6252;DHT22;3159;52.414;9.784;2023-04-03T03:14:06;2.40;99.90
6252;DHT22;3159;52.414;9.784;2023-04-03T03:16:34;2.50;99.90
6252;DHT22;3159;52.414;9.784;2023-04-03T03:19:01;2.40;99.90
6252;DHT22;3159;52.414;9.784;2023-04-03T03:21:27;2.50;99.90
6252;DHT22;3159;52.414;9.784;2023-04-03T03:23:54;2.30;99.90
6252;DHT22;3159;52.414;9.784;2023-04-03T03:26:21;2.30;99.90
6252;DHT22;3159;52.414;9.784;2023-04-03T03:28:48;2.30;99.90
6252;DHT22;3159;52.414;9.784;2023-04-03T03:31:15;2.40;99.90
6252;DHT22;3159;52.414;9.784;2023-04-03T03:33:43;2.40;99.90
6252;DHT22;3159;52.414;9.784;2023-04-03T03:36:09;2.30;99.90
6252;DHT22;3159;52.414;9.784;2023-04-03T03:38:37;2.20;99.90
6252;DHT22;3159;52.414;9.784;2023-04-03T03:41:04;2.30;99.90
6252;DHT22;3159;52.414;9.784;2023-04-03T03:43:31;2.10;99.90
6252;DHT22;3159;52.414;9.784;2023-04-03T03:45:57;2.00;99.90
6252;DHT22;3159;52.414;9.784;2023-04-03T03:48:24;2.00;99.90
6252;DHT22;3159;52.414;9.784;2023-04-03T03:50:52;2.00;99.90
6252;DHT22;3159;52.414;9.784;2023-04-03T03:53:19;2.00;99.90
6252;DHT22;3159;52.414;9.784;2023-04-03T03:55:46;2.00;99.90
6252;DHT22;3159;52.414;9.784;2023-04-03T03:58:13;2.00;99.90
6252;DHT22;3159;52.414;9.784;2023-04-03T04:00:40;2.00;99.90
6252;DHT22;3159;52.414;9.784;2023-04-03T04:03:07;2.00;99.90
6252;DHT22;3159;52.414;9.784;2023-04-03T04:05:33;2.00;99.90
6252;DHT22;3159;52.414;9.784;2023-04-03T04:08:02;1.90;99.90
6252;DHT22;3159;52.414;9.784;2023-04-03T04:10:28;1.80;99.90
6252;DHT22;3159;52.414;9.784;2023-04-03T04:12:55;1.90;99.90
6252;DHT22;3159;52.414;9.784;2023-04-03T04:15:22;1.90;99.90
6252;DHT22;3159;52.414;9.784;2023-04-03T04:17:51;1.90;99.90
6252;DHT22;3159;52.414;9.784;2023-04-03T04:20:18;1.90;99.90
6252;DHT22;3159;52.414;9.784;2023-04-03T04:22:45;1.90;99.90
6252;DHT22;3159;52.414;9.784;2023-04-03T04:25:13;1.90;99.90
6252;DHT22;3159;52.414;9.784;2023-04-03T04:27:40;1.80;99.90
6252;DHT22;3159;52.414;9.784;2023-04-03T04:30:08;1.90;99.90
6252;DHT22;3159;52.414;9.784;2023-04-03T04:32:35;1.90;99.90
6252;DHT22;3159;52.414;9.784;2023-04-03T04:35:03;1.90;99.90
6252;DHT22;3159;52.414;9.784;2023-04-03T04:37:30;1.90;99.90
6252;DHT22;3159;52.414;9.784;2023-04-03T04:39:57;1.90;99.90
6252;DHT22;3159;52.414;9.784;2023-04-03T04:42:25;1.90;99.90
6252;DHT22;3159;52.414;9.784;2023-04-03T04:44:52;1.80;99.90
6252;DHT22;3159;52.414;9.784;2023-04-03T04:47:19;1.80;99.90
6252;DHT22;3159;52.414;9.784;2023-04-03T04:49:46;1.80;99.90
6252;DHT22;3159;52.414;9.784;2023-04-03T04:52:13;1.90;99.90
6252;DHT22;3159;52.414;9.784;2023-04-03T04:54:40;1.90;99.90
6252;DHT22;3159;52.414;9.784;2023-04-03T04:57:07;1.90;99.90
6252;DHT22;3159;52.414;9.784;2023-04-03T04:59:35;1.90;99.90
6252;DHT22;3159;52.414;9.784;2023-04-03T05:02:02;1.90;99.90
6252;DHT22;3159;52.414;9.784;2023-04-03T05:04:29;1.90;99.90
6252;DHT22;3159;52.414;9.784;2023-04-03T05:06:55;1.90;99.90
6252;DHT22;3159;52.414;9.784;2023-04-03T05:09:22;1.90;99.90
6252;DHT22;3159;52.414;9.784;2023-04-03T05:11:49;1.90;99.90
6252;DHT22;3159;52.414;9.784;2023-04-03T05:14:16;2.00;99.90
6252;DHT22;3159;52.414;9.784;2023-04-03T05:16:44;2.00;99.90
6252;DHT22;3159;52.414;9.784;2023-04-03T05:19:11;1.90;99.90
6252;DHT22;3159;52.414;9.784;2023-04-03T05:21:38;1.90;99.90
6252;DHT22;3159;52.414;9.784;2023-04-03T05:24:05;1.90;99.90
6252;DHT22;3159;52.414;9.784;2023-04-03T05:26:34;2.00;99.90
6252;DHT22;3159;52.414;9.784;2023-04-03T05:29:01;1.90;99.90
6252;DHT22;3159;52.414;9.784;2023-04-03T05:31:28;2.00;99.90
6252;DHT22;3159;52.414;9.784;2023-04-03T05:33:57;1.90;99.90
6252;DHT22;3159;52.414;9.784;2023-04-03T05:36:24;1.90;99.90
6252;DHT22;3159;52.414;9.784;2023-04-03T05:38:51;1.90;99.90
6252;DHT22;3159;52.414;9.784;2023-04-03T05:41:18;1.90;99.90
6252;DHT22;3159;52.414;9.784;2023-04-03T05:43:46;1.90;99.90
6252;DHT22;3159;52.414;9.784;2023-04-03T05:46:14;2.00;99.90
6252;DHT22;3159;52.414;9.784;2023-04-03T05:48:41;2.00;99.90
6252;DHT22;3159;52.414;9.784;2023-04-03T05:51:14;2.00;99.90
6252;DHT22;3159;52.414;9.784;2023-04-03T05:53:43;2.00;99.90
6252;DHT22;3159;52.414;9.784;2023-04-03T05:56:10;2.10;99.90
6252;DHT22;3159;52.414;9.784;2023-04-03T05:58:37;2.00;99.90
6252;DHT22;3159;52.414;9.784;2023-04-03T06:01:04;2.00;99.90
6252;DHT22;3159;52.414;9.784;2023-04-03T06:03:32;2.00;99.90
6252;DHT22;3159;52.414;9.784;2023-04-03T06:05:58;2.10;99.90
6252;DHT22;3159;52.414;9.784;2023-04-03T06:08:27;2.10;99.90
6252;DHT22;3159;52.414;9.784;2023-04-03T06:10:53;2.10;99.90
6252;DHT22;3159;52.414;9.784;2023-04-03T06:13:21;2.10;99.90
6252;DHT22;3159;52.414;9.784;2023-04-03T06:15:49;2.20;99.90
6252;DHT22;3159;52.414;9.784;2023-04-03T06:18:16;2.10;99.90
6252;DHT22;3159;52.414;9.784;2023-04-03T06:20:42;2.10;99.90
6252;DHT22;3159;52.414;9.784;2023-04-03T06:23:09;2.20;99.90
6252;DHT22;3159;52.414;9.784;2023-04-03T06:25:37;2.30;99.90
6252;DHT22;3159;52.414;9.784;2023-04-03T06:28:04;2.40;99.90
6252;DHT22;3159;52.414;9.784;2023-04-03T06:30:31;2.40;99.90
6252;DHT22;3159;52.414;9.784;2023-04-03T06:32:58;2.70;99.90
6252;DHT22;3159;52.414;9.784;2023-04-03T06:35:25;2.70;99.90
6252;DHT22;3159;52.414;9.784;2023-04-03T06:37:53;3.00;99.90
6252;DHT22;3159;52.414;9.784;2023-04-03T06:40:23;3.10;99.90
6252;DHT22;3159;52.414;9.784;2023-04-03T06:42:51;3.20;99.90
6252;DHT22;3159;52.414;9.784;2023-04-03T06:45:18;3.40;99.90
6252;DHT22;3159;52.414;9.784;2023-04-03T06:47:45;3.40;99.90
6252;DHT22;3159;52.414;9.784;2023-04-03T06:50:12;3.50;99.90
6252;DHT22;3159;52.414;9.784;2023-04-03T06:52:40;3.70;99.90
6252;DHT22;3159;52.414;9.784;2023-04-03T06:55:08;3.80;99.90
6252;DHT22;3159;52.414;9.784;2023-04-03T06:57:35;4.00;99.90
6252;DHT22;3159;52.414;9.784;2023-04-03T07:00:05;4.00;99.90
6252;DHT22;3159;52.414;9.784;2023-04-03T07:02:32;4.20;99.90
6252;DHT22;3159;52.414;9.784;2023-04-03T07:04:59;4.30;99.90
6252;DHT22;3159;52.414;9.784;2023-04-03T07:07:26;4.60;99.90
6252;DHT22;3159;52.414;9.784;2023-04-03T07:09:53;4.60;99.90
6252;DHT22;3159;52.414;9.784;2023-04-03T07:12:20;4.90;99.90
6252;DHT22;3159;52.414;9.784;2023-04-03T07:14:46;4.80;99.90
6252;DHT22;3159;52.414;9.784;2023-04-03T07:17:15;5.00;99.90
6252;DHT22;3159;52.414;9.784;2023-04-03T07:19:41;5.40;99.90
6252;DHT22;3159;52.414;9.784;2023-04-03T07:22:08;5.30;99.90
6252;DHT22;3159;52.414;9.784;2023-04-03T07:24:36;5.70;99.90
6252;DHT22;3159;52.414;9.784;2023-04-03T07:27:03;5.90;99.90
6252;DHT22;3159;52.414;9.784;2023-04-03T07:29:30;6.00;99.90
6252;DHT22;3159;52.414;9.784;2023-04-03T07:31:57;6.30;99.90
6252;DHT22;3159;52.414;9.784;2023-04-03T07:34:25;6.40;99.90
6252;DHT22;3159;52.414;9.784;2023-04-03T07:36:52;6.50;99.90
6252;DHT22;3159;52.414;9.784;2023-04-03T07:39:18;6.90;99.90
6252;DHT22;3159;52.414;9.784;2023-04-03T07:41:45;6.70;99.90
6252;DHT22;3159;52.414;9.784;2023-04-03T07:44:12;6.90;99.90
6252;DHT22;3159;52.414;9.784;2023-04-03T07:46:39;6.90;99.90
6252;DHT22;3159;52.414;9.784;2023-04-03T07:49:06;6.90;99.90
6252;DHT22;3159;52.414;9.784;2023-04-03T07:51:34;7.20;99.90
6252;DHT22;3159;52.414;9.784;2023-04-03T07:54:01;7.30;99.90
6252;DHT22;3159;52.414;9.784;2023-04-03T07:56:28;7.80;99.90
6252;DHT22;3159;52.414;9.784;2023-04-03T07:58:55;7.90;99.90
6252;DHT22;3159;52.414;9.784;2023-04-03T08:01:21;7.70;99.90
6252;DHT22;3159;52.414;9.784;2023-04-03T08:03:48;7.20;99.90
6252;DHT22;3159;52.414;9.784;2023-04-03T08:06:16;7.50;99.90
6252;DHT22;3159;52.414;9.784;2023-04-03T08:08:44;7.50;99.90
6252;DHT22;3159;52.414;9.784;2023-04-03T08:11:11;8.10;99.90
6252;DHT22;3159;52.414;9.784;2023-04-03T08:13:38;8.20;99.90
6252;DHT22;3159;52.414;9.784;2023-04-03T08:16:08;8.00;99.90
6252;DHT22;3159;52.414;9.784;2023-04-03T08:18:36;8.10;99.90
6252;DHT22;3159;52.414;9.784;2023-04-03T08:21:06;8.30;99.90
6252;DHT22;3159;52.414;9.784;2023-04-03T08:23:33;8.40;99.90
6252;DHT22;3159;52.414;9.784;2023-04-03T08:26:05;8.50;99.90
6252;DHT22;3159;52.414;9.784;2023-04-03T08:28:32;8.50;99.90
6252;DHT22;3159;52.414;9.784;2023-04-03T08:31:03;8.70;99.90
6252;DHT22;3159;52.414;9.784;2023-04-03T08:33:31;8.60;99.90
6252;DHT22;3159;52.414;9.784;2023-04-03T08:35:58;8.50;99.90
6252;DHT22;3159;52.414;9.784;2023-04-03T08:38:25;9.00;99.90
6252;DHT22;3159;52.414;9.784;2023-04-03T08:41:04;9.20;99.90
6252;DHT22;3159;52.414;9.784;2023-04-03T08:43:37;9.20;99.90
6252;DHT22;3159;52.414;9.784;2023-04-03T08:46:11;9.20;99.90
6252;DHT22;3159;52.414;9.784;2023-04-03T08:48:41;9.10;99.90
6252;DHT22;3159;52.414;9.784;2023-04-03T08:51:12;9.10;99.90
6252;DHT22;3159;52.414;9.784;2023-04-03T08:53:42;8.90;99.90
6252;DHT22;3159;52.414;9.784;2023-04-03T08:56:14;8.60;99.90
6252;DHT22;3159;52.414;9.784;2023-04-03T08:58:48;8.80;99.90
6252;DHT22;3159;52.414;9.784;2023-04-03T09:01:19;9.50;99.90
6252;DHT22;3159;52.414;9.784;2023-04-03T09:03:46;9.80;99.90
6252;DHT22;3159;52.414;9.784;2023-04-03T09:06:15;10.20;99.90
6252;DHT22;3159;52.414;9.784;2023-04-03T09:08:50;9.20;99.90
6252;DHT22;3159;52.414;9.784;2023-04-03T09:11:25;9.80;99.90
6252;DHT22;3159;52.414;9.784;2023-04-03T09:13:56;10.30;99.90
6252;DHT22;3159;52.414;9.784;2023-04-03T09:16:37;9.80;99.90
6252;DHT22;3159;52.414;9.784;2023-04-03T09:19:15;9.80;99.90
6252;DHT22;3159;52.414;9.784;2023-04-03T09:21:45;9.80;99.90
6252;DHT22;3159;52.414;9.784;2023-04-03T09:24:13;9.70;99.90
6252;DHT22;3159;52.414;9.784;2023-04-03T09:26:44;9.80;99.90
6252;DHT22;3159;52.414;9.784;2023-04-03T09:29:17;9.40;99.90
6252;DHT22;3159;52.414;9.784;2023-04-03T09:31:48;10.10;99.90
6252;DHT22;3159;52.414;9.784;2023-04-03T09:34:20;10.00;99.90
6252;DHT22;3159;52.414;9.784;2023-04-03T09:36:49;9.80;99.90
6252;DHT22;3159;52.414;9.784;2023-04-03T09:39:18;10.10;99.90
6252;DHT22;3159;52.414;9.784;2023-04-03T09:42:00;9.80;99.90
6252;DHT22;3159;52.414;9.784;2023-04-03T09:44:29;10.10;99.90
6252;DHT22;3159;52.414;9.784;2023-04-03T09:46:56;10.60;99.90
6252;DHT22;3159;52.414;9.784;2023-04-03T09:49:23;10.70;99.90
6252;DHT22;3159;52.414;9.784;2023-04-03T09:51:50;10.40;99.90
6252;DHT22;3159;52.414;9.784;2023-04-03T09:54:32;9.50;99.90
6252;DHT22;3159;52.414;9.784;2023-04-03T09:57:04;9.10;99.90
6252;DHT22;3159;52.414;9.784;2023-04-03T09:59:32;9.00;99.90
6252;DHT22;3159;52.414;9.784;2023-04-03T10:02:02;8.60;99.90
6252;DHT22;3159;52.414;9.784;2023-04-03T10:04:38;8.40;99.90
6252;DHT22;3159;52.414;9.784;2023-04-03T10:07:25;8.20;99.90
6252;DHT22;3159;52.414;9.784;2023-04-03T10:09:55;8.50;99.90
6252;DHT22;3159;52.414;9.784;2023-04-03T10:12:24;8.70;99.90
6252;DHT22;3159;52.414;9.784;2023-04-03T10:14:55;8.30;99.90
6252;DHT22;3159;52.414;9.784;2023-04-03T10:17:30;8.20;99.90
6252;DHT22;3159;52.414;9.784;2023-04-03T10:20:03;9.00;99.90
6252;DHT22;3159;52.414;9.784;2023-04-03T10:22:39;8.70;99.90
6252;DHT22;3159;52.414;9.784;2023-04-03T10:25:15;8.30;99.90
6252;DHT22;3159;52.414;9.784;2023-04-03T10:27:53;7.90;99.90
6252;DHT22;3159;52.414;9.784;2023-04-03T10:30:32;7.80;99.90
6252;DHT22;3159;52.414;9.784;2023-04-03T10:33:11;7.70;99.90
6252;DHT22;3159;52.414;9.784;2023-04-03T10:35:49;7.60;99.90
6252;DHT22;3159;52.414;9.784;2023-04-03T10:38:26;7.50;99.90
6252;DHT22;3159;52.414;9.784;2023-04-03T10:40:59;8.40;99.90
6252;DHT22;3159;52.414;9.784;2023-04-03T10:43:33;8.60;99.90
6252;DHT22;3159;52.414;9.784;2023-04-03T10:46:05;8.30;99.90
6252;DHT22;3159;52.414;9.784;2023-04-03T10:48:47;8.90;99.90
6252;DHT22;3159;52.414;9.784;2023-04-03T10:51:24;9.00;99.90
6252;DHT22;3159;52.414;9.784;2023-04-03T10:53:56;8.70;99.90
6252;DHT22;3159;52.414;9.784;2023-04-03T10:56:31;8.70;99.90
6252;DHT22;3159;52.414;9.784;2023-04-03T10:59:13;9.30;99.90
6252;DHT22;3159;52.414;9.784;2023-04-03T11:01:45;8.80;99.90
6252;DHT22;3159;52.414;9.784;2023-04-03T11:04:13;8.60;99.90
6252;DHT22;3159;52.414;9.784;2023-04-03T11:06:45;8.60;99.90
6252;DHT22;3159;52.414;9.784;2023-04-03T11:09:20;8.50;99.90
6252;DHT22;3159;52.414;9.784;2023-04-03T11:11:48;8.40;99.90
6252;DHT22;3159;52.414;9.784;2023-04-03T11:14:24;8.30;99.90
6252;DHT22;3159;52.414;9.784;2023-04-03T11:16:59;8.30;99.90
6252;DHT22;3159;52.414;9.784;2023-04-03T11:19:34;8.20;99.90
6252;DHT22;3159;52.414;9.784;2023-04-03T11:22:04;8.00;99.90
6252;DHT22;3159;52.414;9.784;2023-04-03T11:24:37;7.90;99.90
6252;DHT22;3159;52.414;9.784;2023-04-03T11:27:08;7.90;99.90
6252;DHT22;3159;52.414;9.784;2023-04-03T11:29:41;7.80;99.90
6252;DHT22;3159;52.414;9.784;2023-04-03T11:32:21;8.00;99.90
6252;DHT22;3159;52.414;9.784;2023-04-03T11:34:56;7.80;99.90
6252;DHT22;3159;52.414;9.784;2023-04-03T11:37:28;7.80;99.90
6252;DHT22;3159;52.414;9.784;2023-04-03T11:40:00;7.80;99.90
6252;DHT22;3159;52.414;9.784;2023-04-03T11:42:34;7.80;99.90
6252;DHT22;3159;52.414;9.784;2023-04-03T11:45:31;7.70;99.90
6252;DHT22;3159;52.414;9.784;2023-04-03T11:48:01;8.50;99.90
6252;DHT22;3159;52.414;9.784;2023-04-03T11:50:40;8.50;99.90
6252;DHT22;3159;52.414;9.784;2023-04-03T11:53:30;8.20;99.90
6252;DHT22;3159;52.414;9.784;2023-04-03T11:56:03;8.20;99.90
6252;DHT22;3159;52.414;9.784;2023-04-03T11:58:32;8.00;99.90
6252;DHT22;3159;52.414;9.784;2023-04-03T12:01:03;8.00;99.90
6252;DHT22;3159;52.414;9.784;2023-04-03T12:03:32;8.00;99.90
6252;DHT22;3159;52.414;9.784;2023-04-03T12:09:28;8.40;99.90
6252;DHT22;3159;52.414;9.784;2023-04-03T12:11:56;8.40;99.90
6252;DHT22;3159;52.414;9.784;2023-04-03T12:14:24;8.30;99.90
6252;DHT22;3159;52.414;9.784;2023-04-03T12:16:54;8.20;99.90
6252;DHT22;3159;52.414;9.784;2023-04-03T12:19:36;8.20;99.90
6252;DHT22;3159;52.414;9.784;2023-04-03T12:22:16;8.00;99.90
6252;DHT22;3159;52.414;9.784;2023-04-03T12:24:48;8.30;99.90
6252;DHT22;3159;52.414;9.784;2023-04-03T12:27:27;9.30;99.90
6252;DHT22;3159;52.414;9.784;2023-04-03T12:30:12;9.70;99.90
6252;DHT22;3159;52.414;9.784;2023-04-03T12:32:48;10.10;99.90
6252;DHT22;3159;52.414;9.784;2023-04-03T12:35:23;9.60;99.90
6252;DHT22;3159;52.414;9.784;2023-04-03T12:40:48;10.20;99.90
6252;DHT22;3159;52.414;9.784;2023-04-03T12:43:34;10.20;99.90
6252;DHT22;3159;52.414;9.784;2023-04-03T12:46:08;10.40;99.90
6252;DHT22;3159;52.414;9.784;2023-04-03T12:48:48;10.70;99.90
6252;DHT22;3159;52.414;9.784;2023-04-03T12:51:18;11.10;99.90
6252;DHT22;3159;52.414;9.784;2023-04-03T12:53:47;11.70;99.90
6252;DHT22;3159;52.414;9.784;2023-04-03T12:56:23;11.00;99.90
6252;DHT22;3159;52.414;9.784;2023-04-03T12:58:52;9.90;99.90
6252;DHT22;3159;52.414;9.784;2023-04-03T13:01:21;9.70;99.90
6252;DHT22;3159;52.414;9.784;2023-04-03T13:03:52;9.60;99.90
6252;DHT22;3159;52.414;9.784;2023-04-03T13:06:21;9.50;99.90
6252;DHT22;3159;52.414;9.784;2023-04-03T13:08:50;10.20;99.90
6252;DHT22;3159;52.414;9.784;2023-04-03T13:11:18;10.10;99.90
6252;DHT22;3159;52.414;9.784;2023-04-03T13:14:01;10.10;99.90
6252;DHT22;3159;52.414;9.784;2023-04-03T13:16:31;9.70;99.90
6252;DHT22;3159;52.414;9.784;2023-04-03T13:19:00;9.90;99.90
6252;DHT22;3159;52.414;9.784;2023-04-03T13:21:29;10.20;99.90
6252;DHT22;3159;52.414;9.784;2023-04-03T13:23:59;10.10;99.90
6252;DHT22;3159;52.414;9.784;2023-04-03T13:26:28;9.70;99.90
6252;DHT22;3159;52.414;9.784;2023-04-03T13:28:59;9.50;99.90
6252;DHT22;3159;52.414;9.784;2023-04-03T13:31:29;9.40;99.90
6252;DHT22;3159;52.414;9.784;2023-04-03T13:34:02;9.50;99.90
6252;DHT22;3159;52.414;9.784;2023-04-03T13:36:31;9.30;99.90
6252;DHT22;3159;52.414;9.784;2023-04-03T13:39:00;9.20;99.90
6252;DHT22;3159;52.414;9.784;2023-04-03T13:41:30;9.70;99.90
6252;DHT22;3159;52.414;9.784;2023-04-03T13:44:15;10.30;99.90
6252;DHT22;3159;52.414;9.784;2023-04-03T13:46:42;10.80;99.90
6252;DHT22;3159;52.414;9.784;2023-04-03T13:49:20;10.90;99.90
6252;DHT22;3159;52.414;9.784;2023-04-03T13:51:47;10.80;99.90
6252;DHT22;3159;52.414;9.784;2023-04-03T13:54:19;10.70;99.90
6252;DHT22;3159;52.414;9.784;2023-04-03T13:56:52;10.60;99.90
6252;DHT22;3159;52.414;9.784;2023-04-03T13:59:22;10.30;99.90
6252;DHT22;3159;52.414;9.784;2023-04-03T14:01:53;10.70;99.90
6252;DHT22;3159;52.414;9.784;2023-04-03T14:04:24;11.00;99.90
6252;DHT22;3159;52.414;9.784;2023-04-03T14:06:52;11.10;99.90
6252;DHT22;3159;52.414;9.784;2023-04-03T14:09:21;10.90;99.90
6252;DHT22;3159;52.414;9.784;2023-04-03T14:11:50;11.30;99.90
6252;DHT22;3159;52.414;9.784;2023-04-03T14:14:21;11.30;99.90
6252;DHT22;3159;52.414;9.784;2023-04-03T14:16:52;11.20;99.90
6252;DHT22;3159;52.414;9.784;2023-04-03T14:19:23;11.00;99.90
6252;DHT22;3159;52.414;9.784;2023-04-03T14:21:51;10.80;99.90
6252;DHT22;3159;52.414;9.784;2023-04-03T14:24:19;10.70;99.90
6252;DHT22;3159;52.414;9.784;2023-04-03T14:26:48;10.60;99.90
6252;DHT22;3159;52.414;9.784;2023-04-03T14:29:15;10.20;99.90
6252;DHT22;3159;52.414;9.784;2023-04-03T14:31:45;9.80;99.90
6252;DHT22;3159;52.414;9.784;2023-04-03T14:34:12;9.90;99.90
6252;DHT22;3159;52.414;9.784;2023-04-03T14:36:43;10.40;99.90
6252;DHT22;3159;52.414;9.784;2023-04-03T14:39:12;10.50;99.90
6252;DHT22;3159;52.414;9.784;2023-04-03T14:41:42;10.90;99.90
6252;DHT22;3159;52.414;9.784;2023-04-03T14:44:10;10.90;99.90
6252;DHT22;3159;52.414;9.784;2023-04-03T14:46:38;11.10;99.90
6252;DHT22;3159;52.414;9.784;2023-04-03T14:49:12;11.20;99.90
6252;DHT22;3159;52.414;9.784;2023-04-03T14:51:42;11.20;99.90
6252;DHT22;3159;52.414;9.784;2023-04-03T14:54:13;11.10;99.90
6252;DHT22;3159;52.414;9.784;2023-04-03T14:56:40;11.20;99.90
6252;DHT22;3159;52.414;9.784;2023-04-03T14:59:10;10.80;99.90
6252;DHT22;3159;52.414;9.784;2023-04-03T15:01:37;10.30;99.90
6252;DHT22;3159;52.414;9.784;2023-04-03T15:04:09;10.30;99.90
6252;DHT22;3159;52.414;9.784;2023-04-03T15:06:36;10.20;99.90
6252;DHT22;3159;52.414;9.784;2023-04-03T15:09:05;9.90;99.90
6252;DHT22;3159;52.414;9.784;2023-04-03T15:11:32;9.80;99.90
6252;DHT22;3159;52.414;9.784;2023-04-03T15:13:59;10.00;99.90
6252;DHT22;3159;52.414;9.784;2023-04-03T15:16:26;10.30;99.90
6252;DHT22;3159;52.414;9.784;2023-04-03T15:18:53;10.50;99.90
6252;DHT22;3159;52.414;9.784;2023-04-03T15:21:20;10.90;99.90
6252;DHT22;3159;52.414;9.784;2023-04-03T15:23:47;11.10;99.90
6252;DHT22;3159;52.414;9.784;2023-04-03T15:26:15;10.80;99.90
6252;DHT22;3159;52.414;9.784;2023-04-03T15:28:43;10.50;99.90
6252;DHT22;3159;52.414;9.784;2023-04-03T15:31:10;9.50;99.90
6252;DHT22;3159;52.414;9.784;2023-04-03T15:33:37;9.60;99.90
6252;DHT22;3159;52.414;9.784;2023-04-03T15:36:05;9.70;99.90
6252;DHT22;3159;52.414;9.784;2023-04-03T15:38:32;9.00;99.90
6252;DHT22;3159;52.414;9.784;2023-04-03T15:40:58;9.10;99.90
6252;DHT22;3159;52.414;9.784;2023-04-03T15:43:27;9.20;99.90
6252;DHT22;3159;52.414;9.784;2023-04-03T15:45:56;9.00;99.90
6252;DHT22;3159;52.414;9.784;2023-04-03T15:48:26;8.90;99.90
6252;DHT22;3159;52.414;9.784;2023-04-03T15:50:53;8.90;99.90
6252;DHT22;3159;52.414;9.784;2023-04-03T15:53:20;8.70;99.90
6252;DHT22;3159;52.414;9.784;2023-04-03T15:55:47;8.20;99.90
6252;DHT22;3159;52.414;9.784;2023-04-03T15:58:14;8.30;99.90
6252;DHT22;3159;52.414;9.784;2023-04-03T16:00:42;8.50;99.90
6252;DHT22;3159;52.414;9.784;2023-04-03T16:03:11;8.80;99.90
6252;DHT22;3159;52.414;9.784;2023-04-03T16:05:38;9.20;99.90
6252;DHT22;3159;52.414;9.784;2023-04-03T16:08:06;9.30;99.90
6252;DHT22;3159;52.414;9.784;2023-04-03T16:10:34;9.00;99.90
6252;DHT22;3159;52.414;9.784;2023-04-03T16:13:01;9.30;99.90
6252;DHT22;3159;52.414;9.784;2023-04-03T16:15:29;9.20;99.90
6252;DHT22;3159;52.414;9.784;2023-04-03T16:17:57;9.10;99.90
6252;DHT22;3159;52.414;9.784;2023-04-03T16:20:25;9.60;99.90
6252;DHT22;3159;52.414;9.784;2023-04-03T16:22:52;9.60;99.90
6252;DHT22;3159;52.414;9.784;2023-04-03T16:25:20;9.50;99.90
6252;DHT22;3159;52.414;9.784;2023-04-03T16:27:47;9.60;99.90
6252;DHT22;3159;52.414;9.784;2023-04-03T16:30:14;9.40;99.90
6252;DHT22;3159;52.414;9.784;2023-04-03T16:32:41;9.30;99.90
6252;DHT22;3159;52.414;9.784;2023-04-03T16:35:10;9.10;99.90
6252;DHT22;3159;52.414;9.784;2023-04-03T16:37:37;9.00;99.90